sensor_id;sensor_type;location;lat;lon;timestamp;temperature;humidity
21772;DHT22;11047;47.904;8.110;2023-02-08T00:01:06;-4.90;99.90
21772;DHT22;11047;47.904;8.110;2023-02-08T00:03:33;-5.00;99.90
21772;DHT22;11047;47.904;8.110;2023-02-08T00:06:02;-4.90;99.90
21772;DHT22;11047;47.904;8.110;2023-02-08T00:08:29;-4.90;99.90
21772;DHT22;11047;47.904;8.110;2023-02-08T00:10:56;-4.90;99.90
21772;DHT22;11047;47.904;8.110;2023-02-08T00:13:24;-4.90;99.90
21772;DHT22;11047;47.904;8.110;2023-02-08T00:15:52;-5.00;99.90
21772;DHT22;11047;47.904;8.110;2023-02-08T00:18:20;-5.00;99.90
21772;DHT22;11047;47.904;8.110;2023-02-08T00:20:47;-5.10;99.90
21772;DHT22;11047;47.904;8.110;2023-02-08T00:23:15;-5.10;99.90
21772;DHT22;11047;47.904;8.110;2023-02-08T00:25:42;-5.10;99.90
21772;DHT22;11047;47.904;8.110;2023-02-08T00:28:13;-5.10;99.90
21772;DHT22;11047;47.904;8.110;2023-02-08T00:30:40;-5.20;99.90
21772;DHT22;11047;47.904;8.110;2023-02-08T00:33:08;-5.20;99.90
21772;DHT22;11047;47.904;8.110;2023-02-08T00:35:35;-5.20;99.90
21772;DHT22;11047;47.904;8.110;2023-02-08T00:38:02;-5.20;99.90
21772;DHT22;11047;47.904;8.110;2023-02-08T00:40:30;-5.30;99.90
21772;DHT22;11047;47.904;8.110;2023-02-08T00:42:57;-5.30;99.90
21772;DHT22;11047;47.904;8.110;2023-02-08T00:45:24;-5.30;99.90
21772;DHT22;11047;47.904;8.110;2023-02-08T00:47:51;-5.30;99.90
21772;DHT22;11047;47.904;8.110;2023-02-08T00:50:18;-5.30;99.90
21772;DHT22;11047;47.904;8.110;2023-02-08T00:52:44;-5.30;99.90
21772;DHT22;11047;47.904;8.110;2023-02-08T00:55:11;-5.30;99.90
21772;DHT22;11047;47.904;8.110;2023-02-08T00:57:39;-5.30;99.90
21772;DHT22;11047;47.904;8.110;2023-02-08T01:00:08;-5.30;99.90
21772;DHT22;11047;47.904;8.110;2023-02-08T01:02:36;-5.30;99.90
21772;DHT22;11047;47.904;8.110;2023-02-08T01:05:04;-5.30;99.90
21772;DHT22;11047;47.904;8.110;2023-02-08T01:07:31;-5.30;99.90
21772;DHT22;11047;47.904;8.110;2023-02-08T01:09:58;-5.30;99.90
21772;DHT22;11047;47.904;8.110;2023-02-08T01:12:25;-5.30;99.90
21772;DHT22;11047;47.904;8.110;2023-02-08T01:14:53;-5.40;99.90
21772;DHT22;11047;47.904;8.110;2023-02-08T01:17:20;-5.50;99.90
21772;DHT22;11047;47.904;8.110;2023-02-08T01:19:47;-5.40;99.90
21772;DHT22;11047;47.904;8.110;2023-02-08T01:22:14;-5.50;99.90
21772;DHT22;11047;47.904;8.110;2023-02-08T01:24:41;-5.60;99.90
21772;DHT22;11047;47.904;8.110;2023-02-08T01:27:08;-5.70;99.90
21772;DHT22;11047;47.904;8.110;2023-02-08T01:29:35;-5.70;99.90
21772;DHT22;11047;47.904;8.110;2023-02-08T01:32:03;-5.80;99.90
21772;DHT22;11047;47.904;8.110;2023-02-08T01:34:30;-5.90;99.90
21772;DHT22;11047;47.904;8.110;2023-02-08T01:36:57;-5.90;99.90
21772;DHT22;11047;47.904;8.110;2023-02-08T01:39:24;-5.90;99.90
21772;DHT22;11047;47.904;8.110;2023-02-08T01:41:51;-5.90;99.90
21772;DHT22;11047;47.904;8.110;2023-02-08T01:47:23;-5.90;99.90
21772;DHT22;11047;47.904;8.110;2023-02-08T01:49:50;-6.00;99.90
21772;DHT22;11047;47.904;8.110;2023-02-08T01:52:19;-6.00;99.90
21772;DHT22;11047;47.904;8.110;2023-02-08T01:54:51;-5.90;99.90
21772;DHT22;11047;47.904;8.110;2023-02-08T01:57:19;-6.00;99.90
21772;DHT22;11047;47.904;8.110;2023-02-08T02:13:39;-6.00;99.90
21772;DHT22;11047;47.904;8.110;2023-02-08T02:16:06;-6.10;99.90
21772;DHT22;11047;47.904;8.110;2023-02-08T02:18:33;-6.10;99.90
21772;DHT22;11047;47.904;8.110;2023-02-08T02:21:11;-6.10;99.90
21772;DHT22;11047;47.904;8.110;2023-02-08T02:24:02;-6.20;99.90
21772;DHT22;11047;47.904;8.110;2023-02-08T02:30:05;-6.20;99.90
21772;DHT22;11047;47.904;8.110;2023-02-08T02:32:58;-6.20;99.90
21772;DHT22;11047;47.904;8.110;2023-02-08T02:35:37;-6.20;99.90
21772;DHT22;11047;47.904;8.110;2023-02-08T02:38:13;-6.00;99.90
21772;DHT22;11047;47.904;8.110;2023-02-08T02:40:49;-6.30;99.90
21772;DHT22;11047;47.904;8.110;2023-02-08T02:43:22;-6.40;99.90
21772;DHT22;11047;47.904;8.110;2023-02-08T02:46:12;-6.60;99.90
21772;DHT22;11047;47.904;8.110;2023-02-08T02:48:47;-6.60;99.90
21772;DHT22;11047;47.904;8.110;2023-02-08T02:51:18;-6.60;99.90
21772;DHT22;11047;47.904;8.110;2023-02-08T02:53:51;-6.60;99.90
21772;DHT22;11047;47.904;8.110;2023-02-08T02:56:23;-6.50;99.90
21772;DHT22;11047;47.904;8.110;2023-02-08T02:58:51;-6.50;99.90
21772;DHT22;11047;47.904;8.110;2023-02-08T03:01:22;-6.60;99.90
21772;DHT22;11047;47.904;8.110;2023-02-08T03:03:52;-6.60;99.90
21772;DHT22;11047;47.904;8.110;2023-02-08T03:06:27;-6.70;99.90
21772;DHT22;11047;47.904;8.110;2023-02-08T03:09:25;-6.70;99.90
21772;DHT22;11047;47.904;8.110;2023-02-08T03:12:03;-6.70;99.90
21772;DHT22;11047;47.904;8.110;2023-02-08T03:14:40;-6.70;99.90
21772;DHT22;11047;47.904;8.110;2023-02-08T03:17:28;-6.70;99.90
21772;DHT22;11047;47.904;8.110;2023-02-08T03:20:04;-6.80;99.90
21772;DHT22;11047;47.904;8.110;2023-02-08T03:22:42;-6.70;99.90
21772;DHT22;11047;47.904;8.110;2023-02-08T03:25:15;-6.80;99.90
21772;DHT22;11047;47.904;8.110;2023-02-08T03:27:48;-6.80;99.90
21772;DHT22;11047;47.904;8.110;2023-02-08T03:30:20;-6.80;99.90
21772;DHT22;11047;47.904;8.110;2023-02-08T03:32:53;-6.80;99.90
21772;DHT22;11047;47.904;8.110;2023-02-08T03:35:26;-6.80;99.90
21772;DHT22;11047;47.904;8.110;2023-02-08T03:37:58;-6.90;99.90
21772;DHT22;11047;47.904;8.110;2023-02-08T03:40:28;-6.90;99.90
21772;DHT22;11047;47.904;8.110;2023-02-08T03:42:59;-6.80;99.90
21772;DHT22;11047;47.904;8.110;2023-02-08T03:45:30;-6.90;99.90
21772;DHT22;11047;47.904;8.110;2023-02-08T03:47:59;-6.80;99.90
21772;DHT22;11047;47.904;8.110;2023-02-08T03:50:33;-6.90;99.90
21772;DHT22;11047;47.904;8.110;2023-02-08T03:53:01;-6.80;99.90
21772;DHT22;11047;47.904;8.110;2023-02-08T03:55:31;-6.80;99.90
21772;DHT22;11047;47.904;8.110;2023-02-08T03:58:04;-6.80;99.90
21772;DHT22;11047;47.904;8.110;2023-02-08T04:00:36;-6.90;99.90
21772;DHT22;11047;47.904;8.110;2023-02-08T04:03:07;-6.80;99.90
21772;DHT22;11047;47.904;8.110;2023-02-08T04:05:37;-6.00;99.90
21772;DHT22;11047;47.904;8.110;2023-02-08T04:08:04;-6.70;99.90
21772;DHT22;11047;47.904;8.110;2023-02-08T04:10:31;-6.60;99.90
21772;DHT22;11047;47.904;8.110;2023-02-08T04:12:58;-6.60;99.90
21772;DHT22;11047;47.904;8.110;2023-02-08T04:15:25;-6.60;99.90
21772;DHT22;11047;47.904;8.110;2023-02-08T04:17:52;-6.60;99.90
21772;DHT22;11047;47.904;8.110;2023-02-08T04:20:19;-6.60;99.90
21772;DHT22;11047;47.904;8.110;2023-02-08T04:22:48;-6.60;99.90
21772;DHT22;11047;47.904;8.110;2023-02-08T04:25:15;-6.60;99.90
21772;DHT22;11047;47.904;8.110;2023-02-08T04:27:42;-6.60;99.90
21772;DHT22;11047;47.904;8.110;2023-02-08T04:30:10;-6.60;99.90
21772;DHT22;11047;47.904;8.110;2023-02-08T04:32:37;-6.60;99.90
21772;DHT22;11047;47.904;8.110;2023-02-08T04:35:04;-6.60;99.90
21772;DHT22;11047;47.904;8.110;2023-02-08T04:37:31;-6.70;99.90
21772;DHT22;11047;47.904;8.110;2023-02-08T04:40:00;-6.70;99.90
21772;DHT22;11047;47.904;8.110;2023-02-08T04:42:27;-6.70;99.90
21772;DHT22;11047;47.904;8.110;2023-02-08T04:44:54;-6.70;99.90
21772;DHT22;11047;47.904;8.110;2023-02-08T04:47:21;-6.70;99.90
21772;DHT22;11047;47.904;8.110;2023-02-08T04:49:48;-6.90;99.90
21772;DHT22;11047;47.904;8.110;2023-02-08T04:52:15;-6.90;99.90
21772;DHT22;11047;47.904;8.110;2023-02-08T04:54:42;-6.80;99.90
21772;DHT22;11047;47.904;8.110;2023-02-08T04:57:11;-6.80;99.90
21772;DHT22;11047;47.904;8.110;2023-02-08T04:59:38;-6.80;99.90
21772;DHT22;11047;47.904;8.110;2023-02-08T05:02:05;-7.00;99.90
21772;DHT22;11047;47.904;8.110;2023-02-08T05:04:32;-6.80;99.90
21772;DHT22;11047;47.904;8.110;2023-02-08T05:06:59;-6.70;99.90
21772;DHT22;11047;47.904;8.110;2023-02-08T05:09:26;-6.80;99.90
21772;DHT22;11047;47.904;8.110;2023-02-08T05:11:53;-6.80;99.90
21772;DHT22;11047;47.904;8.110;2023-02-08T05:14:21;-6.60;99.90
21772;DHT22;11047;47.904;8.110;2023-02-08T05:16:48;-6.70;99.90
21772;DHT22;11047;47.904;8.110;2023-02-08T05:19:15;-6.70;99.90
21772;DHT22;11047;47.904;8.110;2023-02-08T05:21:41;-6.70;99.90
21772;DHT22;11047;47.904;8.110;2023-02-08T05:24:08;-6.80;99.90
21772;DHT22;11047;47.904;8.110;2023-02-08T05:26:37;-6.80;99.90
21772;DHT22;11047;47.904;8.110;2023-02-08T05:29:04;-6.90;99.90
21772;DHT22;11047;47.904;8.110;2023-02-08T05:31:33;-6.80;99.90
21772;DHT22;11047;47.904;8.110;2023-02-08T05:34:00;-6.50;99.90
21772;DHT22;11047;47.904;8.110;2023-02-08T05:36:26;-7.00;99.90
21772;DHT22;11047;47.904;8.110;2023-02-08T05:38:53;-6.90;99.90
21772;DHT22;11047;47.904;8.110;2023-02-08T05:41:20;-7.00;99.90
21772;DHT22;11047;47.904;8.110;2023-02-08T05:43:47;-6.90;99.90
21772;DHT22;11047;47.904;8.110;2023-02-08T05:46:14;-6.90;99.90
21772;DHT22;11047;47.904;8.110;2023-02-08T05:48:42;-6.90;99.90
21772;DHT22;11047;47.904;8.110;2023-02-08T05:51:09;-6.90;99.90
21772;DHT22;11047;47.904;8.110;2023-02-08T05:53:36;-7.10;99.90
21772;DHT22;11047;47.904;8.110;2023-02-08T05:56:03;-7.00;99.90
21772;DHT22;11047;47.904;8.110;2023-02-08T05:58:30;-7.00;99.90
21772;DHT22;11047;47.904;8.110;2023-02-08T06:00:57;-6.90;99.90
21772;DHT22;11047;47.904;8.110;2023-02-08T06:03:24;-6.90;99.90
21772;DHT22;11047;47.904;8.110;2023-02-08T06:05:52;-7.00;99.90
21772;DHT22;11047;47.904;8.110;2023-02-08T06:08:19;-7.10;99.90
21772;DHT22;11047;47.904;8.110;2023-02-08T06:10:47;-7.10;99.90
21772;DHT22;11047;47.904;8.110;2023-02-08T06:13:14;-7.10;99.90
21772;DHT22;11047;47.904;8.110;2023-02-08T06:15:41;-7.10;99.90
21772;DHT22;11047;47.904;8.110;2023-02-08T06:18:09;-7.10;99.90
21772;DHT22;11047;47.904;8.110;2023-02-08T06:20:36;-7.10;99.90
21772;DHT22;11047;47.904;8.110;2023-02-08T06:23:04;-7.10;99.90
21772;DHT22;11047;47.904;8.110;2023-02-08T06:25:31;-7.20;99.90
21772;DHT22;11047;47.904;8.110;2023-02-08T06:27:58;-7.10;99.90
21772;DHT22;11047;47.904;8.110;2023-02-08T06:30:25;-7.00;99.90
21772;DHT22;11047;47.904;8.110;2023-02-08T06:32:52;-7.00;99.90
21772;DHT22;11047;47.904;8.110;2023-02-08T06:35:19;-6.90;99.90
21772;DHT22;11047;47.904;8.110;2023-02-08T06:37:46;-6.90;99.90
21772;DHT22;11047;47.904;8.110;2023-02-08T06:40:15;-6.80;99.90
21772;DHT22;11047;47.904;8.110;2023-02-08T06:42:42;-5.90;99.90
21772;DHT22;11047;47.904;8.110;2023-02-08T06:45:09;-6.80;99.90
21772;DHT22;11047;47.904;8.110;2023-02-08T06:47:36;-6.60;99.90
21772;DHT22;11047;47.904;8.110;2023-02-08T06:50:03;-6.40;99.90
21772;DHT22;11047;47.904;8.110;2023-02-08T06:52:31;-6.40;99.90
21772;DHT22;11047;47.904;8.110;2023-02-08T06:54:58;-6.30;99.90
21772;DHT22;11047;47.904;8.110;2023-02-08T06:57:26;-6.10;99.90
21772;DHT22;11047;47.904;8.110;2023-02-08T06:59:53;-6.10;99.90
21772;DHT22;11047;47.904;8.110;2023-02-08T07:02:20;-6.10;99.90
21772;DHT22;11047;47.904;8.110;2023-02-08T07:04:47;-6.10;99.90
21772;DHT22;11047;47.904;8.110;2023-02-08T07:07:15;-6.00;99.90
21772;DHT22;11047;47.904;8.110;2023-02-08T07:09:43;-5.90;99.90
21772;DHT22;11047;47.904;8.110;2023-02-08T07:12:10;-5.90;99.90
21772;DHT22;11047;47.904;8.110;2023-02-08T07:14:40;-6.00;99.90
21772;DHT22;11047;47.904;8.110;2023-02-08T07:17:08;-5.90;99.90
21772;DHT22;11047;47.904;8.110;2023-02-08T07:19:35;-5.90;99.90
21772;DHT22;11047;47.904;8.110;2023-02-08T07:22:02;-5.90;99.90
21772;DHT22;11047;47.904;8.110;2023-02-08T07:24:33;-6.00;99.90
21772;DHT22;11047;47.904;8.110;2023-02-08T07:27:00;-5.90;99.90
21772;DHT22;11047;47.904;8.110;2023-02-08T07:29:28;-5.90;99.90
21772;DHT22;11047;47.904;8.110;2023-02-08T07:31:56;-5.90;99.90
21772;DHT22;11047;47.904;8.110;2023-02-08T07:34:23;-5.90;99.90
21772;DHT22;11047;47.904;8.110;2023-02-08T07:36:50;-5.90;99.90
21772;DHT22;11047;47.904;8.110;2023-02-08T07:39:17;-5.90;99.90
21772;DHT22;11047;47.904;8.110;2023-02-08T07:41:44;-5.90;99.90
21772;DHT22;11047;47.904;8.110;2023-02-08T07:44:10;-5.90;99.90
21772;DHT22;11047;47.904;8.110;2023-02-08T07:46:39;-5.80;99.90
21772;DHT22;11047;47.904;8.110;2023-02-08T07:49:07;-5.80;99.90
21772;DHT22;11047;47.904;8.110;2023-02-08T07:51:34;-5.70;99.90
21772;DHT22;11047;47.904;8.110;2023-02-08T07:54:01;-5.60;99.90
21772;DHT22;11047;47.904;8.110;2023-02-08T07:56:28;-5.50;99.90
21772;DHT22;11047;47.904;8.110;2023-02-08T07:58:55;-5.60;99.90
21772;DHT22;11047;47.904;8.110;2023-02-08T08:01:22;-5.50;99.90
21772;DHT22;11047;47.904;8.110;2023-02-08T08:03:50;-5.40;99.90
21772;DHT22;11047;47.904;8.110;2023-02-08T08:06:18;-5.40;99.90
21772;DHT22;11047;47.904;8.110;2023-02-08T08:08:45;-5.30;99.90
21772;DHT22;11047;47.904;8.110;2023-02-08T08:11:12;-5.30;99.90
21772;DHT22;11047;47.904;8.110;2023-02-08T08:13:39;-5.20;99.90
21772;DHT22;11047;47.904;8.110;2023-02-08T08:16:06;-5.10;99.90
21772;DHT22;11047;47.904;8.110;2023-02-08T08:18:33;-5.10;99.90
21772;DHT22;11047;47.904;8.110;2023-02-08T08:21:00;-5.20;99.90
21772;DHT22;11047;47.904;8.110;2023-02-08T08:23:28;-5.10;99.90
21772;DHT22;11047;47.904;8.110;2023-02-08T08:25:57;-5.10;99.90
21772;DHT22;11047;47.904;8.110;2023-02-08T08:28:24;-5.10;99.90
21772;DHT22;11047;47.904;8.110;2023-02-08T08:30:51;-5.00;99.90
21772;DHT22;11047;47.904;8.110;2023-02-08T08:33:18;-4.90;99.90
21772;DHT22;11047;47.904;8.110;2023-02-08T08:35:45;-4.90;99.90
21772;DHT22;11047;47.904;8.110;2023-02-08T08:38:12;-4.80;99.90
21772;DHT22;11047;47.904;8.110;2023-02-08T08:40:40;-4.80;99.90
21772;DHT22;11047;47.904;8.110;2023-02-08T08:43:07;-4.80;99.90
21772;DHT22;11047;47.904;8.110;2023-02-08T08:45:34;-4.60;99.90
21772;DHT22;11047;47.904;8.110;2023-02-08T08:48:02;-4.50;99.90
21772;DHT22;11047;47.904;8.110;2023-02-08T08:50:29;-4.50;99.90
21772;DHT22;11047;47.904;8.110;2023-02-08T08:52:56;-4.50;99.90
21772;DHT22;11047;47.904;8.110;2023-02-08T08:55:23;-4.40;99.90
21772;DHT22;11047;47.904;8.110;2023-02-08T08:57:53;-4.50;99.90
21772;DHT22;11047;47.904;8.110;2023-02-08T09:00:20;-4.30;99.90
21772;DHT22;11047;47.904;8.110;2023-02-08T09:02:47;-4.20;99.90
21772;DHT22;11047;47.904;8.110;2023-02-08T09:05:14;-3.90;99.90
21772;DHT22;11047;47.904;8.110;2023-02-08T09:07:41;-2.80;99.90
21772;DHT22;11047;47.904;8.110;2023-02-08T09:10:08;0.10;99.90
21772;DHT22;11047;47.904;8.110;2023-02-08T09:12:35;1.40;99.90
21772;DHT22;11047;47.904;8.110;2023-02-08T09:15:04;4.40;99.90
21772;DHT22;11047;47.904;8.110;2023-02-08T09:17:31;6.10;99.90
21772;DHT22;11047;47.904;8.110;2023-02-08T09:19:58;8.20;99.90
21772;DHT22;11047;47.904;8.110;2023-02-08T09:22:24;8.90;99.90
21772;DHT22;11047;47.904;8.110;2023-02-08T09:24:52;10.50;99.90
21772;DHT22;11047;47.904;8.110;2023-02-08T09:27:19;10.90;99.90
21772;DHT22;11047;47.904;8.110;2023-02-08T09:29:45;11.60;99.90
21772;DHT22;11047;47.904;8.110;2023-02-08T09:32:14;11.30;99.70
21772;DHT22;11047;47.904;8.110;2023-02-08T09:34:40;12.40;95.80
21772;DHT22;11047;47.904;8.110;2023-02-08T09:37:07;12.90;95.80
21772;DHT22;11047;47.904;8.110;2023-02-08T09:39:34;12.50;98.60
21772;DHT22;11047;47.904;8.110;2023-02-08T09:42:29;12.40;92.20
21772;DHT22;11047;47.904;8.110;2023-02-08T09:45:19;12.30;94.10
21772;DHT22;11047;47.904;8.110;2023-02-08T09:47:55;13.00;91.70
21772;DHT22;11047;47.904;8.110;2023-02-08T09:50:30;13.10;92.10
21772;DHT22;11047;47.904;8.110;2023-02-08T09:53:03;14.50;92.40
21772;DHT22;11047;47.904;8.110;2023-02-08T09:55:35;14.10;90.10
21772;DHT22;11047;47.904;8.110;2023-02-08T09:58:07;13.50;94.70
21772;DHT22;11047;47.904;8.110;2023-02-08T10:00:44;13.70;95.00
21772;DHT22;11047;47.904;8.110;2023-02-08T10:03:22;14.20;92.30
21772;DHT22;11047;47.904;8.110;2023-02-08T10:05:51;13.60;94.40
21772;DHT22;11047;47.904;8.110;2023-02-08T10:08:17;14.60;92.70
21772;DHT22;11047;47.904;8.110;2023-02-08T10:10:53;14.40;94.50
21772;DHT22;11047;47.904;8.110;2023-02-08T10:13:54;15.00;90.00
21772;DHT22;11047;47.904;8.110;2023-02-08T10:16:38;14.50;93.90
21772;DHT22;11047;47.904;8.110;2023-02-08T10:19:17;14.00;91.80
21772;DHT22;11047;47.904;8.110;2023-02-08T10:21:58;13.10;93.20
21772;DHT22;11047;47.904;8.110;2023-02-08T10:24:59;12.00;95.30
21772;DHT22;11047;47.904;8.110;2023-02-08T10:27:36;10.50;97.10
21772;DHT22;11047;47.904;8.110;2023-02-08T10:30:19;8.60;98.20
21772;DHT22;11047;47.904;8.110;2023-02-08T10:32:58;8.10;99.90
21772;DHT22;11047;47.904;8.110;2023-02-08T10:35:29;8.30;99.90
21772;DHT22;11047;47.904;8.110;2023-02-08T10:38:06;7.80;99.90
21772;DHT22;11047;47.904;8.110;2023-02-08T10:40:38;7.00;99.90
21772;DHT22;11047;47.904;8.110;2023-02-08T10:43:16;6.90;99.90
21772;DHT22;11047;47.904;8.110;2023-02-08T10:45:50;6.80;99.90
21772;DHT22;11047;47.904;8.110;2023-02-08T10:48:28;6.20;99.90
21772;DHT22;11047;47.904;8.110;2023-02-08T10:50:58;6.20;99.90
21772;DHT22;11047;47.904;8.110;2023-02-08T10:53:25;6.00;99.90
21772;DHT22;11047;47.904;8.110;2023-02-08T10:55:52;5.70;99.90
21772;DHT22;11047;47.904;8.110;2023-02-08T10:58:21;5.80;99.90
21772;DHT22;11047;47.904;8.110;2023-02-08T11:00:49;5.20;99.90
21772;DHT22;11047;47.904;8.110;2023-02-08T11:03:20;5.00;99.90
21772;DHT22;11047;47.904;8.110;2023-02-08T11:05:48;5.10;99.90
21772;DHT22;11047;47.904;8.110;2023-02-08T11:08:18;4.80;99.90
21772;DHT22;11047;47.904;8.110;2023-02-08T11:10:55;5.00;99.90
21772;DHT22;11047;47.904;8.110;2023-02-08T11:13:24;5.30;99.90
21772;DHT22;11047;47.904;8.110;2023-02-08T11:15:54;5.00;99.90
21772;DHT22;11047;47.904;8.110;2023-02-08T11:18:24;4.90;99.80
21772;DHT22;11047;47.904;8.110;2023-02-08T11:20:54;5.00;99.90
21772;DHT22;11047;47.904;8.110;2023-02-08T11:23:25;5.10;99.90
21772;DHT22;11047;47.904;8.110;2023-02-08T11:25:53;4.80;99.90
21772;DHT22;11047;47.904;8.110;2023-02-08T11:28:28;4.70;99.90
21772;DHT22;11047;47.904;8.110;2023-02-08T11:30:57;4.40;99.90
21772;DHT22;11047;47.904;8.110;2023-02-08T11:33:25;4.10;99.90
21772;DHT22;11047;47.904;8.110;2023-02-08T11:35:58;4.10;99.90
21772;DHT22;11047;47.904;8.110;2023-02-08T11:38:28;4.10;99.90
21772;DHT22;11047;47.904;8.110;2023-02-08T11:40:56;4.10;99.90
21772;DHT22;11047;47.904;8.110;2023-02-08T11:43:26;4.10;99.90
21772;DHT22;11047;47.904;8.110;2023-02-08T11:45:55;4.30;99.90
21772;DHT22;11047;47.904;8.110;2023-02-08T11:48:25;4.20;99.90
21772;DHT22;11047;47.904;8.110;2023-02-08T11:50:56;4.20;99.90
21772;DHT22;11047;47.904;8.110;2023-02-08T11:53:29;4.20;99.90
21772;DHT22;11047;47.904;8.110;2023-02-08T11:56:01;4.40;99.90
21772;DHT22;11047;47.904;8.110;2023-02-08T11:58:28;4.60;99.90
21772;DHT22;11047;47.904;8.110;2023-02-08T12:00:58;4.50;99.90
21772;DHT22;11047;47.904;8.110;2023-02-08T12:03:27;4.40;99.90
21772;DHT22;11047;47.904;8.110;2023-02-08T12:06:06;4.40;99.90
21772;DHT22;11047;47.904;8.110;2023-02-08T12:08:41;4.60;99.90
21772;DHT22;11047;47.904;8.110;2023-02-08T12:11:17;4.30;99.90
21772;DHT22;11047;47.904;8.110;2023-02-08T12:14:08;4.50;99.90
21772;DHT22;11047;47.904;8.110;2023-02-08T12:16:54;4.40;99.90
21772;DHT22;11047;47.904;8.110;2023-02-08T12:19:46;4.50;99.90
21772;DHT22;11047;47.904;8.110;2023-02-08T12:22:22;4.30;99.90
21772;DHT22;11047;47.904;8.110;2023-02-08T12:25:02;4.40;99.90
21772;DHT22;11047;47.904;8.110;2023-02-08T12:27:41;4.50;99.90
21772;DHT22;11047;47.904;8.110;2023-02-08T12:30:18;4.70;99.90
21772;DHT22;11047;47.904;8.110;2023-02-08T12:33:06;4.50;99.90
21772;DHT22;11047;47.904;8.110;2023-02-08T12:35:55;4.50;99.90
21772;DHT22;11047;47.904;8.110;2023-02-08T12:38:37;4.40;99.90
21772;DHT22;11047;47.904;8.110;2023-02-08T12:41:30;4.40;99.90
21772;DHT22;11047;47.904;8.110;2023-02-08T12:44:05;4.30;99.90
21772;DHT22;11047;47.904;8.110;2023-02-08T12:46:47;4.30;99.90
21772;DHT22;11047;47.904;8.110;2023-02-08T12:49:31;4.10;99.90
21772;DHT22;11047;47.904;8.110;2023-02-08T12:52:10;4.30;99.90
21772;DHT22;11047;47.904;8.110;2023-02-08T12:54:41;4.20;99.90
21772;DHT22;11047;47.904;8.110;2023-02-08T12:57:13;4.50;99.90
21772;DHT22;11047;47.904;8.110;2023-02-08T12:59:43;4.20;99.90
21772;DHT22;11047;47.904;8.110;2023-02-08T13:02:20;4.20;99.90
21772;DHT22;11047;47.904;8.110;2023-02-08T13:04:51;4.20;99.90
21772;DHT22;11047;47.904;8.110;2023-02-08T13:07:26;4.20;99.90
21772;DHT22;11047;47.904;8.110;2023-02-08T13:09:59;4.20;99.90
21772;DHT22;11047;47.904;8.110;2023-02-08T13:12:32;4.20;99.90
21772;DHT22;11047;47.904;8.110;2023-02-08T13:15:06;4.20;99.90
21772;DHT22;11047;47.904;8.110;2023-02-08T13:17:42;4.10;99.90
21772;DHT22;11047;47.904;8.110;2023-02-08T13:20:29;4.10;99.90
21772;DHT22;11047;47.904;8.110;2023-02-08T13:23:05;4.00;99.90
21772;DHT22;11047;47.904;8.110;2023-02-08T13:25:34;3.80;99.90
21772;DHT22;11047;47.904;8.110;2023-02-08T13:28:05;3.60;99.90
21772;DHT22;11047;47.904;8.110;2023-02-08T13:30:34;3.50;99.90
21772;DHT22;11047;47.904;8.110;2023-02-08T13:33:11;3.60;99.90
21772;DHT22;11047;47.904;8.110;2023-02-08T13:35:40;3.60;99.90
21772;DHT22;11047;47.904;8.110;2023-02-08T13:38:26;3.50;99.90
21772;DHT22;11047;47.904;8.110;2023-02-08T13:41:06;3.60;99.90
21772;DHT22;11047;47.904;8.110;2023-02-08T13:43:39;3.70;99.90
21772;DHT22;11047;47.904;8.110;2023-02-08T13:46:07;4.10;99.90
21772;DHT22;11047;47.904;8.110;2023-02-08T13:48:47;3.60;99.90
21772;DHT22;11047;47.904;8.110;2023-02-08T13:51:51;3.50;99.90
21772;DHT22;11047;47.904;8.110;2023-02-08T13:54:18;3.60;99.90
21772;DHT22;11047;47.904;8.110;2023-02-08T13:56:46;3.60;99.90
21772;DHT22;11047;47.904;8.110;2023-02-08T13:59:30;3.40;99.90
21772;DHT22;11047;47.904;8.110;2023-02-08T14:02:21;3.40;99.90
21772;DHT22;11047;47.904;8.110;2023-02-08T14:04:52;3.30;99.90
21772;DHT22;11047;47.904;8.110;2023-02-08T14:07:26;3.30;99.90
21772;DHT22;11047;47.904;8.110;2023-02-08T14:10:20;3.20;99.90
21772;DHT22;11047;47.904;8.110;2023-02-08T14:12:52;3.00;99.90
21772;DHT22;11047;47.904;8.110;2023-02-08T14:15:33;3.00;99.90
21772;DHT22;11047;47.904;8.110;2023-02-08T14:18:02;3.00;99.90
21772;DHT22;11047;47.904;8.110;2023-02-08T14:20:35;3.10;99.90
21772;DHT22;11047;47.904;8.110;2023-02-08T14:23:07;2.90;99.90
21772;DHT22;11047;47.904;8.110;2023-02-08T14:25:46;2.90;99.90
21772;DHT22;11047;47.904;8.110;2023-02-08T14:28:31;2.90;99.90
21772;DHT22;11047;47.904;8.110;2023-02-08T14:31:03;2.90;99.90
21772;DHT22;11047;47.904;8.110;2023-02-08T14:33:34;2.80;99.90
21772;DHT22;11047;47.904;8.110;2023-02-08T14:36:04;2.80;99.90
21772;DHT22;11047;47.904;8.110;2023-02-08T14:39:03;2.80;99.90
21772;DHT22;11047;47.904;8.110;2023-02-08T14:41:48;2.80;99.90
21772;DHT22;11047;47.904;8.110;2023-02-08T14:50:31;2.40;99.90
21772;DHT22;11047;47.904;8.110;2023-02-08T14:53:05;2.40;99.90
21772;DHT22;11047;47.904;8.110;2023-02-08T14:55:39;2.30;99.90
21772;DHT22;11047;47.904;8.110;2023-02-08T14:58:11;2.20;99.90
21772;DHT22;11047;47.904;8.110;2023-02-08T15:00:40;2.00;99.90
21772;DHT22;11047;47.904;8.110;2023-02-08T15:03:13;2.00;99.90
21772;DHT22;11047;47.904;8.110;2023-02-08T15:08:29;1.80;99.90
21772;DHT22;11047;47.904;8.110;2023-02-08T15:10:56;1.70;99.90
21772;DHT22;11047;47.904;8.110;2023-02-08T15:13:24;1.80;99.90
21772;DHT22;11047;47.904;8.110;2023-02-08T15:15:52;1.70;99.90
21772;DHT22;11047;47.904;8.110;2023-02-08T15:18:22;1.70;99.90
21772;DHT22;11047;47.904;8.110;2023-02-08T15:21:00;1.90;99.90
21772;DHT22;11047;47.904;8.110;2023-02-08T15:23:28;1.70;99.90
21772;DHT22;11047;47.904;8.110;2023-02-08T15:25:57;1.70;99.90
21772;DHT22;11047;47.904;8.110;2023-02-08T15:28:26;1.70;99.90
21772;DHT22;11047;47.904;8.110;2023-02-08T15:30:56;1.70;99.90
21772;DHT22;11047;47.904;8.110;2023-02-08T15:33:24;1.50;99.90
21772;DHT22;11047;47.904;8.110;2023-02-08T15:35:57;1.50;99.90
21772;DHT22;11047;47.904;8.110;2023-02-08T15:38:26;1.40;99.90
21772;DHT22;11047;47.904;8.110;2023-02-08T15:41:02;1.40;99.90
21772;DHT22;11047;47.904;8.110;2023-02-08T15:43:29;1.20;99.90
21772;DHT22;11047;47.904;8.110;2023-02-08T15:45:57;1.20;99.90
21772;DHT22;11047;47.904;8.110;2023-02-08T15:48:24;1.00;99.90
21772;DHT22;11047;47.904;8.110;2023-02-08T15:50:52;0.90;99.90
21772;DHT22;11047;47.904;8.110;2023-02-08T15:53:20;0.80;99.90
21772;DHT22;11047;47.904;8.110;2023-02-08T15:55:51;0.80;99.90
21772;DHT22;11047;47.904;8.110;2023-02-08T15:58:27;0.80;99.90
21772;DHT22;11047;47.904;8.110;2023-02-08T16:00:56;0.70;99.90
21772;DHT22;11047;47.904;8.110;2023-02-08T16:03:24;0.90;99.90
21772;DHT22;11047;47.904;8.110;2023-02-08T16:05:54;0.50;99.90
21772;DHT22;11047;47.904;8.110;2023-02-08T16:08:24;0.40;99.90
21772;DHT22;11047;47.904;8.110;2023-02-08T16:10:55;0.30;99.90
21772;DHT22;11047;47.904;8.110;2023-02-08T16:13:24;0.20;99.90
21772;DHT22;11047;47.904;8.110;2023-02-08T16:15:53;0.20;99.90
21772;DHT22;11047;47.904;8.110;2023-02-08T16:18:38;0.20;99.90
21772;DHT22;11047;47.904;8.110;2023-02-08T16:21:17;0.20;99.90
21772;DHT22;11047;47.904;8.110;2023-02-08T16:23:49;-0.10;99.90
21772;DHT22;11047;47.904;8.110;2023-02-08T16:26:21;-0.10;99.90
21772;DHT22;11047;47.904;8.110;2023-02-08T16:28:57;-0.30;99.90
21772;DHT22;11047;47.904;8.110;2023-02-08T16:31:27;-0.30;99.90